sensor_id;sensor_type;location;lat;lon;timestamp;pressure;altitude;pressure_sealevel;temperature;humidity
6464;BME280;3265;42.694;23.282;2023-03-23T00:02:14;94599.22;;;6.55;100.00
6464;BME280;3265;42.694;23.282;2023-03-23T00:04:42;94601.03;;;6.55;100.00
6464;BME280;3265;42.694;23.282;2023-03-23T00:07:09;94594.28;;;6.54;100.00
6464;BME280;3265;42.694;23.282;2023-03-23T00:09:37;94597.44;;;6.56;100.00
6464;BME280;3265;42.694;23.282;2023-03-23T00:12:06;94595.66;;;6.50;100.00
6464;BME280;3265;42.694;23.282;2023-03-23T00:14:33;94595.06;;;6.48;100.00
6464;BME280;3265;42.694;23.282;2023-03-23T00:17:08;94585.28;;;6.37;100.00
6464;BME280;3265;42.694;23.282;2023-03-23T00:19:40;94591.25;;;6.44;100.00
6464;BME280;3265;42.694;23.282;2023-03-23T00:22:14;94571.75;;;6.28;100.00
6464;BME280;3265;42.694;23.282;2023-03-23T00:24:42;94586.91;;;6.44;100.00
6464;BME280;3265;42.694;23.282;2023-03-23T00:27:10;94588.47;;;6.39;100.00
6464;BME280;3265;42.694;23.282;2023-03-23T00:29:40;94594.63;;;6.38;100.00
6464;BME280;3265;42.694;23.282;2023-03-23T00:32:08;94598.00;;;6.38;100.00
6464;BME280;3265;42.694;23.282;2023-03-23T00:34:40;94611.13;;;6.43;100.00
6464;BME280;3265;42.694;23.282;2023-03-23T00:37:09;94606.94;;;6.42;100.00
6464;BME280;3265;42.694;23.282;2023-03-23T00:39:39;94595.97;;;6.27;100.00
6464;BME280;3265;42.694;23.282;2023-03-23T00:42:12;94602.91;;;6.26;100.00
6464;BME280;3265;42.694;23.282;2023-03-23T00:44:39;94585.41;;;6.15;100.00
6464;BME280;3265;42.694;23.282;2023-03-23T00:47:07;94606.72;;;6.31;100.00
6464;BME280;3265;42.694;23.282;2023-03-23T00:49:36;94616.47;;;6.42;100.00
6464;BME280;3265;42.694;23.282;2023-03-23T00:52:05;94599.13;;;6.22;100.00
6464;BME280;3265;42.694;23.282;2023-03-23T00:54:32;94591.41;;;6.22;100.00
6464;BME280;3265;42.694;23.282;2023-03-23T00:57:01;94576.06;;;6.08;100.00
6464;BME280;3265;42.694;23.282;2023-03-23T00:59:28;94606.47;;;6.19;100.00
6464;BME280;3265;42.694;23.282;2023-03-23T01:01:55;94610.25;;;6.23;100.00
6464;BME280;3265;42.694;23.282;2023-03-23T01:04:21;94626.16;;;6.33;100.00
6464;BME280;3265;42.694;23.282;2023-03-23T01:06:50;94625.59;;;6.38;100.00
6464;BME280;3265;42.694;23.282;2023-03-23T01:09:18;94571.06;;;6.00;100.00
6464;BME280;3265;42.694;23.282;2023-03-23T01:11:47;94615.03;;;6.26;100.00
6464;BME280;3265;42.694;23.282;2023-03-23T01:14:17;94622.41;;;6.36;100.00
6464;BME280;3265;42.694;23.282;2023-03-23T01:16:44;94584.81;;;6.13;100.00
6464;BME280;3265;42.694;23.282;2023-03-23T01:19:12;94606.47;;;6.19;100.00
6464;BME280;3265;42.694;23.282;2023-03-23T01:21:39;94624.22;;;6.42;100.00
6464;BME280;3265;42.694;23.282;2023-03-23T01:24:06;94619.84;;;6.42;100.00
6464;BME280;3265;42.694;23.282;2023-03-23T01:26:33;94618.66;;;6.45;100.00
6464;BME280;3265;42.694;23.282;2023-03-23T01:29:00;94623.28;;;6.49;100.00
6464;BME280;3265;42.694;23.282;2023-03-23T01:31:28;94609.16;;;6.45;100.00
6464;BME280;3265;42.694;23.282;2023-03-23T01:33:55;94604.38;;;6.42;100.00
6464;BME280;3265;42.694;23.282;2023-03-23T01:36:24;94618.28;;;6.48;100.00
6464;BME280;3265;42.694;23.282;2023-03-23T01:38:52;94616.88;;;6.45;100.00
6464;BME280;3265;42.694;23.282;2023-03-23T01:41:19;94610.50;;;6.41;100.00
6464;BME280;3265;42.694;23.282;2023-03-23T01:44:01;94594.81;;;6.36;100.00
6464;BME280;3265;42.694;23.282;2023-03-23T01:46:31;94587.66;;;6.32;100.00
6464;BME280;3265;42.694;23.282;2023-03-23T01:49:03;94608.75;;;6.48;100.00
6464;BME280;3265;42.694;23.282;2023-03-23T01:51:35;94603.00;;;6.46;100.00
6464;BME280;3265;42.694;23.282;2023-03-23T01:54:06;94593.28;;;6.48;100.00
6464;BME280;3265;42.694;23.282;2023-03-23T01:56:38;94597.03;;;6.52;100.00
6464;BME280;3265;42.694;23.282;2023-03-23T01:59:07;94591.69;;;6.54;100.00
6464;BME280;3265;42.694;23.282;2023-03-23T02:01:35;94604.63;;;6.60;100.00
6464;BME280;3265;42.694;23.282;2023-03-23T02:04:05;94597.88;;;6.59;100.00
6464;BME280;3265;42.694;23.282;2023-03-23T02:06:32;94596.47;;;6.57;100.00
6464;BME280;3265;42.694;23.282;2023-03-23T02:09:00;94582.13;;;6.41;100.00
6464;BME280;3265;42.694;23.282;2023-03-23T02:11:27;94594.03;;;6.42;100.00
6464;BME280;3265;42.694;23.282;2023-03-23T02:13:54;94594.66;;;6.51;100.00
6464;BME280;3265;42.694;23.282;2023-03-23T02:16:29;94598.63;;;6.53;100.00
6464;BME280;3265;42.694;23.282;2023-03-23T02:22:07;94597.28;;;6.57;100.00
6464;BME280;3265;42.694;23.282;2023-03-23T02:24:57;94596.47;;;6.57;100.00
6464;BME280;3265;42.694;23.282;2023-03-23T02:30:40;94606.41;;;6.60;100.00
6464;BME280;3265;42.694;23.282;2023-03-23T02:33:29;94604.84;;;6.65;100.00
6464;BME280;3265;42.694;23.282;2023-03-23T02:35:58;94593.13;;;6.63;100.00
6464;BME280;3265;42.694;23.282;2023-03-23T02:38:30;94590.72;;;6.61;100.00
6464;BME280;3265;42.694;23.282;2023-03-23T02:41:00;94597.28;;;6.57;100.00
6464;BME280;3265;42.694;23.282;2023-03-23T02:43:33;94606.81;;;6.63;100.00
6464;BME280;3265;42.694;23.282;2023-03-23T02:46:05;94606.03;;;6.63;100.00
6464;BME280;3265;42.694;23.282;2023-03-23T02:48:36;94599.84;;;6.57;100.00
6464;BME280;3265;42.694;23.282;2023-03-23T02:51:05;94612.75;;;6.57;100.00
6464;BME280;3265;42.694;23.282;2023-03-23T02:53:37;94603.19;;;6.45;100.00
6464;BME280;3265;42.694;23.282;2023-03-23T02:56:07;94618.69;;;6.51;100.00
6464;BME280;3265;42.694;23.282;2023-03-23T02:58:35;94623.28;;;6.49;100.00
6464;BME280;3265;42.694;23.282;2023-03-23T03:04:11;94623.03;;;6.38;100.00
6464;BME280;3265;42.694;23.282;2023-03-23T03:06:45;94611.88;;;6.31;100.00
6464;BME280;3265;42.694;23.282;2023-03-23T03:09:18;94630.53;;;6.33;100.00
6464;BME280;3265;42.694;23.282;2023-03-23T03:11:50;94615.59;;;6.21;100.00
6464;BME280;3265;42.694;23.282;2023-03-23T03:14:21;94638.25;;;6.26;100.00
6464;BME280;3265;42.694;23.282;2023-03-23T03:16:53;94642.78;;;6.24;100.00
6464;BME280;3265;42.694;23.282;2023-03-23T03:19:27;94644.78;;;6.22;100.00
6464;BME280;3265;42.694;23.282;2023-03-23T03:21:57;94616.75;;;6.12;100.00
6464;BME280;3265;42.694;23.282;2023-03-23T03:24:27;94644.78;;;6.22;100.00
6464;BME280;3265;42.694;23.282;2023-03-23T03:26:57;94629.84;;;6.11;100.00
6464;BME280;3265;42.694;23.282;2023-03-23T03:29:27;94636.22;;;6.21;100.00
6464;BME280;3265;42.694;23.282;2023-03-23T03:31:56;94627.19;;;5.98;100.00
6464;BME280;3265;42.694;23.282;2023-03-23T03:34:27;94640.72;;;6.06;100.00
6464;BME280;3265;42.694;23.282;2023-03-23T03:36:58;94638.34;;;6.05;100.00
6464;BME280;3265;42.694;23.282;2023-03-23T03:39:26;94639.31;;;5.97;100.00
6464;BME280;3265;42.694;23.282;2023-03-23T03:41:54;94644.63;;;5.96;100.00
6464;BME280;3265;42.694;23.282;2023-03-23T03:44:34;94650.84;;;6.08;100.00
6464;BME280;3265;42.694;23.282;2023-03-23T03:47:18;94595.03;;;5.66;100.00
6464;BME280;3265;42.694;23.282;2023-03-23T03:49:50;94651.25;;;6.05;100.00
6464;BME280;3265;42.694;23.282;2023-03-23T03:52:17;94619.81;;;5.88;100.00
6464;BME280;3265;42.694;23.282;2023-03-23T03:58:23;94602.63;;;5.74;100.00
6464;BME280;3265;42.694;23.282;2023-03-23T04:01:02;94637.50;;;5.98;100.00
6464;BME280;3265;42.694;23.282;2023-03-23T04:03:49;94605.66;;;5.84;100.00
6464;BME280;3265;42.694;23.282;2023-03-23T04:06:33;94630.13;;;5.95;100.00
6464;BME280;3265;42.694;23.282;2023-03-23T04:11:53;94609.19;;;5.77;100.00
6464;BME280;3265;42.694;23.282;2023-03-23T04:14:20;94624.47;;;5.78;100.00
6464;BME280;3265;42.694;23.282;2023-03-23T04:16:47;94624.88;;;5.82;100.00
6464;BME280;3265;42.694;23.282;2023-03-23T04:19:17;94637.19;;;5.80;100.00
6464;BME280;3265;42.694;23.282;2023-03-23T04:21:45;94626.75;;;5.66;100.00
6464;BME280;3265;42.694;23.282;2023-03-23T04:24:14;94630.00;;;5.75;100.00
6464;BME280;3265;42.694;23.282;2023-03-23T04:26:41;94641.16;;;5.82;100.00
6464;BME280;3265;42.694;23.282;2023-03-23T04:29:10;94632.94;;;5.72;100.00
6464;BME280;3265;42.694;23.282;2023-03-23T04:31:38;94641.91;;;5.76;100.00
6464;BME280;3265;42.694;23.282;2023-03-23T04:34:06;94635.72;;;5.70;100.00
6464;BME280;3265;42.694;23.282;2023-03-23T04:36:33;94646.03;;;5.70;100.00
6464;BME280;3265;42.694;23.282;2023-03-23T04:39:01;94642.28;;;5.73;100.00
6464;BME280;3265;42.694;23.282;2023-03-23T04:41:32;94630.28;;;5.59;100.00
6464;BME280;3265;42.694;23.282;2023-03-23T04:43:59;94624.66;;;5.49;100.00
6464;BME280;3265;42.694;23.282;2023-03-23T04:46:29;94654.09;;;5.61;100.00
6464;BME280;3265;42.694;23.282;2023-03-23T04:48:57;94618.84;;;5.40;100.00
6464;BME280;3265;42.694;23.282;2023-03-23T04:51:25;94658.66;;;5.59;100.00
6464;BME280;3265;42.694;23.282;2023-03-23T04:53:53;94654.78;;;5.48;100.00
6464;BME280;3265;42.694;23.282;2023-03-23T04:56:22;94658.41;;;5.54;100.00
6464;BME280;3265;42.694;23.282;2023-03-23T04:58:49;94632.38;;;5.49;100.00
6464;BME280;3265;42.694;23.282;2023-03-23T05:01:15;94658.81;;;5.57;100.00
6464;BME280;3265;42.694;23.282;2023-03-23T05:03:43;94662.56;;;5.55;100.00
6464;BME280;3265;42.694;23.282;2023-03-23T05:06:10;94662.41;;;5.56;100.00
6464;BME280;3265;42.694;23.282;2023-03-23T05:08:37;94668.75;;;5.60;100.00
6464;BME280;3265;42.694;23.282;2023-03-23T05:11:05;94665.13;;;5.55;100.00
6464;BME280;3265;42.694;23.282;2023-03-23T05:13:35;94674.66;;;5.54;100.00
6464;BME280;3265;42.694;23.282;2023-03-23T05:16:05;94669.97;;;5.64;100.00
6464;BME280;3265;42.694;23.282;2023-03-23T05:18:32;94648.50;;;5.57;100.00
6464;BME280;3265;42.694;23.282;2023-03-23T05:21:00;94673.59;;;5.70;100.00
6464;BME280;3265;42.694;23.282;2023-03-23T05:23:27;94676.16;;;5.70;100.00
6464;BME280;3265;42.694;23.282;2023-03-23T05:25:57;94675.41;;;5.76;100.00
6464;BME280;3265;42.694;23.282;2023-03-23T05:28:26;94678.81;;;5.77;100.00
6464;BME280;3265;42.694;23.282;2023-03-23T05:30:55;94668.22;;;5.65;100.00
6464;BME280;3265;42.694;23.282;2023-03-23T05:33:22;94677.34;;;5.67;100.00
6464;BME280;3265;42.694;23.282;2023-03-23T05:35:49;94668.22;;;5.65;100.00
6464;BME280;3265;42.694;23.282;2023-03-23T05:38:16;94687.72;;;5.74;100.00
6464;BME280;3265;42.694;23.282;2023-03-23T05:40:43;94688.91;;;5.78;100.00
6464;BME280;3265;42.694;23.282;2023-03-23T05:43:10;94696.84;;;5.77;100.00
6464;BME280;3265;42.694;23.282;2023-03-23T05:45:40;94694.81;;;5.72;100.00
6464;BME280;3265;42.694;23.282;2023-03-23T05:48:08;94697.09;;;5.82;100.00
6464;BME280;3265;42.694;23.282;2023-03-23T05:50:35;94700.25;;;5.84;100.00
6464;BME280;3265;42.694;23.282;2023-03-23T05:53:02;94680.94;;;5.73;100.00
6464;BME280;3265;42.694;23.282;2023-03-23T05:55:29;94704.22;;;5.80;100.00
6464;BME280;3265;42.694;23.282;2023-03-23T05:57:56;94705.38;;;5.77;100.00
6464;BME280;3265;42.694;23.282;2023-03-23T06:00:23;94703.41;;;5.79;100.00
6464;BME280;3265;42.694;23.282;2023-03-23T06:02:54;94708.38;;;5.81;100.00
6464;BME280;3265;42.694;23.282;2023-03-23T06:05:24;94711.22;;;5.86;100.00
6464;BME280;3265;42.694;23.282;2023-03-23T06:07:52;94712.06;;;5.93;100.00
6464;BME280;3265;42.694;23.282;2023-03-23T06:10:19;94707.72;;;5.93;100.00
6464;BME280;3265;42.694;23.282;2023-03-23T06:12:46;94694.38;;;5.90;100.00
6464;BME280;3265;42.694;23.282;2023-03-23T06:15:13;94710.50;;;5.98;100.00
6464;BME280;3265;42.694;23.282;2023-03-23T06:17:40;94708.63;;;6.13;100.00
6464;BME280;3265;42.694;23.282;2023-03-23T06:20:08;94708.25;;;6.16;100.00
6464;BME280;3265;42.694;23.282;2023-03-23T06:22:37;94691.72;;;6.04;100.00
6464;BME280;3265;42.694;23.282;2023-03-23T06:25:05;94712.09;;;6.27;100.00
6464;BME280;3265;42.694;23.282;2023-03-23T06:27:32;94706.38;;;6.32;100.00
6464;BME280;3265;42.694;23.282;2023-03-23T06:30:00;94705.63;;;6.38;100.00
6464;BME280;3265;42.694;23.282;2023-03-23T06:32:30;94704.44;;;6.40;100.00
6464;BME280;3265;42.694;23.282;2023-03-23T06:34:58;94712.78;;;6.42;100.00
6464;BME280;3265;42.694;23.282;2023-03-23T06:37:24;94708.25;;;6.51;100.00
6464;BME280;3265;42.694;23.282;2023-03-23T06:39:53;94711.22;;;6.48;100.00
6464;BME280;3265;42.694;23.282;2023-03-23T06:42:21;94716.94;;;6.43;100.00
6464;BME280;3265;42.694;23.282;2023-03-23T06:44:49;94716.19;;;6.49;100.00
6464;BME280;3265;42.694;23.282;2023-03-23T06:47:17;94712.06;;;6.61;100.00
6464;BME280;3265;42.694;23.282;2023-03-23T06:49:43;94725.59;;;6.70;100.00
6464;BME280;3265;42.694;23.282;2023-03-23T06:52:10;94724.44;;;6.79;100.00
6464;BME280;3265;42.694;23.282;2023-03-23T06:54:37;94715.47;;;6.68;100.00
6464;BME280;3265;42.694;23.282;2023-03-23T06:57:05;94722.88;;;6.78;100.00
6464;BME280;3265;42.694;23.282;2023-03-23T06:59:32;94716.53;;;6.87;100.00
6464;BME280;3265;42.694;23.282;2023-03-23T07:01:59;94723.72;;;6.92;100.00
6464;BME280;3265;42.694;23.282;2023-03-23T07:04:27;94735.88;;;7.04;100.00
6464;BME280;3265;42.694;23.282;2023-03-23T07:06:53;94713.03;;;7.08;100.00
6464;BME280;3265;42.694;23.282;2023-03-23T07:09:21;94738.13;;;7.27;100.00
6464;BME280;3265;42.694;23.282;2023-03-23T07:11:48;94739.72;;;7.34;100.00
6464;BME280;3265;42.694;23.282;2023-03-23T07:14:18;94737.75;;;7.43;100.00
6464;BME280;3265;42.694;23.282;2023-03-23T07:16:47;94726.81;;;7.48;100.00
6464;BME280;3265;42.694;23.282;2023-03-23T07:19:14;94740.19;;;7.58;100.00
6464;BME280;3265;42.694;23.282;2023-03-23T07:21:41;94740.19;;;7.64;100.00
6464;BME280;3265;42.694;23.282;2023-03-23T07:24:10;94736.59;;;7.72;100.00
6464;BME280;3265;42.694;23.282;2023-03-23T07:26:39;94740.19;;;7.84;100.00
6464;BME280;3265;42.694;23.282;2023-03-23T07:29:07;94729.63;;;7.85;100.00
6464;BME280;3265;42.694;23.282;2023-03-23T07:31:35;94730.63;;;7.91;100.00
6464;BME280;3265;42.694;23.282;2023-03-23T07:34:02;94742.97;;;8.09;100.00
6464;BME280;3265;42.694;23.282;2023-03-23T07:36:30;94737.59;;;8.10;100.00
6464;BME280;3265;42.694;23.282;2023-03-23T07:38:58;94737.41;;;8.12;100.00
6464;BME280;3265;42.694;23.282;2023-03-23T07:41:24;94736.19;;;8.21;100.00
6464;BME280;3265;42.694;23.282;2023-03-23T07:43:51;94734.63;;;8.33;100.00
6464;BME280;3265;42.694;23.282;2023-03-23T07:46:18;94735.38;;;8.40;100.00
6464;BME280;3265;42.694;23.282;2023-03-23T07:48:47;94741.94;;;8.49;100.00
6464;BME280;3265;42.694;23.282;2023-03-23T07:51:14;94746.13;;;8.57;100.00
6464;BME280;3265;42.694;23.282;2023-03-23T07:53:42;94750.69;;;8.68;100.00
6464;BME280;3265;42.694;23.282;2023-03-23T07:56:10;94745.09;;;8.77;100.00
6464;BME280;3265;42.694;23.282;2023-03-23T07:58:37;94745.66;;;8.86;100.00
6464;BME280;3265;42.694;23.282;2023-03-23T08:01:04;94742.63;;;8.89;100.00
6464;BME280;3265;42.694;23.282;2023-03-23T08:03:32;94756.34;;;9.02;100.00
6464;BME280;3265;42.694;23.282;2023-03-23T08:06:00;94746.31;;;9.12;100.00
6464;BME280;3265;42.694;23.282;2023-03-23T08:08:27;94753.28;;;9.19;100.00
6464;BME280;3265;42.694;23.282;2023-03-23T08:10:55;94751.06;;;9.29;100.00
6464;BME280;3265;42.694;23.282;2023-03-23T08:13:22;94745.22;;;9.33;100.00
6464;BME280;3265;42.694;23.282;2023-03-23T08:15:49;94754.53;;;9.47;100.00
6464;BME280;3265;42.694;23.282;2023-03-23T08:18:17;94752.06;;;9.59;100.00
6464;BME280;3265;42.694;23.282;2023-03-23T08:20:44;94752.00;;;9.72;100.00
6464;BME280;3265;42.694;23.282;2023-03-23T08:23:13;94739.97;;;9.78;100.00
6464;BME280;3265;42.694;23.282;2023-03-23T08:25:41;94737.31;;;9.84;100.00
6464;BME280;3265;42.694;23.282;2023-03-23T08:28:09;94750.59;;;10.01;100.00
6464;BME280;3265;42.694;23.282;2023-03-23T08:30:38;94745.69;;;10.11;100.00
6464;BME280;3265;42.694;23.282;2023-03-23T08:33:06;94746.41;;;10.24;100.00
6464;BME280;3265;42.694;23.282;2023-03-23T08:35:35;94745.66;;;10.42;100.00
6464;BME280;3265;42.694;23.282;2023-03-23T08:38:03;94749.72;;;10.56;100.00
6464;BME280;3265;42.694;23.282;2023-03-23T08:40:31;94746.31;;;10.74;100.00
6464;BME280;3265;42.694;23.282;2023-03-23T08:42:59;94755.38;;;10.90;100.00
6464;BME280;3265;42.694;23.282;2023-03-23T08:45:26;94752.78;;;11.08;99.35
6464;BME280;3265;42.694;23.282;2023-03-23T08:47:53;94753.41;;;11.21;95.85
6464;BME280;3265;42.694;23.282;2023-03-23T08:50:23;94756.97;;;11.38;92.97
6464;BME280;3265;42.694;23.282;2023-03-23T08:52:51;94757.88;;;11.62;91.57
6464;BME280;3265;42.694;23.282;2023-03-23T08:55:19;94757.50;;;11.77;90.35
6464;BME280;3265;42.694;23.282;2023-03-23T08:57:48;94752.97;;;11.84;89.11
6464;BME280;3265;42.694;23.282;2023-03-23T09:00:18;94762.06;;;12.05;88.81
6464;BME280;3265;42.694;23.282;2023-03-23T09:02:48;94759.75;;;12.26;88.81
6464;BME280;3265;42.694;23.282;2023-03-23T09:05:16;94760.06;;;12.41;85.46
6464;BME280;3265;42.694;23.282;2023-03-23T09:07:48;94749.66;;;12.53;83.34
6464;BME280;3265;42.694;23.282;2023-03-23T09:10:18;94757.25;;;12.78;82.68
6464;BME280;3265;42.694;23.282;2023-03-23T09:12:54;94687.97;;;12.59;81.52
6464;BME280;3265;42.694;23.282;2023-03-23T09:15:34;94714.44;;;13.02;81.92
6464;BME280;3265;42.694;23.282;2023-03-23T09:18:04;94704.56;;;13.16;80.60
6464;BME280;3265;42.694;23.282;2023-03-23T09:20:34;94725.44;;;13.44;76.65
6464;BME280;3265;42.694;23.282;2023-03-23T09:23:07;94703.06;;;13.20;76.47
6464;BME280;3265;42.694;23.282;2023-03-23T09:25:43;94757.69;;;13.66;76.58
6464;BME280;3265;42.694;23.282;2023-03-23T09:28:15;94736.03;;;13.37;78.34
6464;BME280;3265;42.694;23.282;2023-03-23T09:30:58;94752.66;;;13.48;78.69
6464;BME280;3265;42.694;23.282;2023-03-23T09:33:29;94683.00;;;13.37;78.68
6464;BME280;3265;42.694;23.282;2023-03-23T09:36:00;94717.78;;;13.82;78.67
6464;BME280;3265;42.694;23.282;2023-03-23T09:38:39;94681.34;;;14.09;76.08
6464;BME280;3265;42.694;23.282;2023-03-23T09:41:16;94705.31;;;14.56;75.09
6464;BME280;3265;42.694;23.282;2023-03-23T09:43:57;94730.84;;;14.87;72.95
6464;BME280;3265;42.694;23.282;2023-03-23T09:46:50;94671.63;;;14.59;72.40
6464;BME280;3265;42.694;23.282;2023-03-23T09:49:23;94684.19;;;14.79;73.52
6464;BME280;3265;42.694;23.282;2023-03-23T09:51:57;94755.53;;;15.56;72.68
6464;BME280;3265;42.694;23.282;2023-03-23T09:54:31;94705.47;;;15.31;71.87
6464;BME280;3265;42.694;23.282;2023-03-23T09:57:01;94685.00;;;15.28;70.35
6464;BME280;3265;42.694;23.282;2023-03-23T09:59:39;94730.03;;;15.73;70.46
6464;BME280;3265;42.694;23.282;2023-03-23T10:02:13;94753.44;;;16.07;67.95
6464;BME280;3265;42.694;23.282;2023-03-23T10:04:44;94730.28;;;16.30;71.63
6464;BME280;3265;42.694;23.282;2023-03-23T10:07:13;94755.94;;;16.55;67.55
6464;BME280;3265;42.694;23.282;2023-03-23T10:09:43;94735.59;;;16.77;67.29
6464;BME280;3265;42.694;23.282;2023-03-23T10:12:18;94734.75;;;17.14;64.98
6464;BME280;3265;42.694;23.282;2023-03-23T10:15:02;94746.22;;;17.54;64.72
6464;BME280;3265;42.694;23.282;2023-03-23T10:17:33;94743.63;;;17.65;61.67
6464;BME280;3265;42.694;23.282;2023-03-23T10:20:17;94736.03;;;17.83;63.46
6464;BME280;3265;42.694;23.282;2023-03-23T10:22:53;94754.22;;;18.30;60.99
6464;BME280;3265;42.694;23.282;2023-03-23T10:25:24;94744.75;;;18.34;60.70
6464;BME280;3265;42.694;23.282;2023-03-23T10:27:59;94737.38;;;18.46;60.44
6464;BME280;3265;42.694;23.282;2023-03-23T10:30:33;94746.59;;;18.59;61.14
6464;BME280;3265;42.694;23.282;2023-03-23T10:33:03;94750.06;;;18.49;60.64
6464;BME280;3265;42.694;23.282;2023-03-23T10:35:35;94742.38;;;18.48;60.06
6464;BME280;3265;42.694;23.282;2023-03-23T10:38:06;94748.72;;;18.27;59.66
6464;BME280;3265;42.694;23.282;2023-03-23T10:40:49;94739.47;;;18.19;59.92
6464;BME280;3265;42.694;23.282;2023-03-23T10:43:21;94736.38;;;18.52;59.77
6464;BME280;3265;42.694;23.282;2023-03-23T10:45:55;94739.22;;;18.76;58.28
6464;BME280;3265;42.694;23.282;2023-03-23T10:48:28;94730.53;;;18.81;58.38
6464;BME280;3265;42.694;23.282;2023-03-23T10:51:03;94735.81;;;18.76;58.36
6464;BME280;3265;42.694;23.282;2023-03-23T10:53:35;94725.00;;;18.77;57.77
6464;BME280;3265;42.694;23.282;2023-03-23T10:56:04;94740.78;;;18.87;58.33
6464;BME280;3265;42.694;23.282;2023-03-23T10:58:33;94730.19;;;19.07;57.36
6464;BME280;3265;42.694;23.282;2023-03-23T11:01:04;94735.88;;;19.35;56.99
6464;BME280;3265;42.694;23.282;2023-03-23T11:03:40;94731.69;;;19.88;55.07
6464;BME280;3265;42.694;23.282;2023-03-23T11:06:09;94733.81;;;20.24;54.17
6464;BME280;3265;42.694;23.282;2023-03-23T11:08:47;94709.50;;;19.89;54.34
6464;BME280;3265;42.694;23.282;2023-03-23T11:11:17;94738.25;;;20.34;54.57
6464;BME280;3265;42.694;23.282;2023-03-23T11:13:45;94729.78;;;20.37;52.77
6464;BME280;3265;42.694;23.282;2023-03-23T11:16:24;94721.88;;;19.93;51.85
6464;BME280;3265;42.694;23.282;2023-03-23T11:18:51;94724.31;;;19.85;50.80
6464;BME280;3265;42.694;23.282;2023-03-23T11:21:20;94708.09;;;20.01;50.22
6464;BME280;3265;42.694;23.282;2023-03-23T11:23:50;94719.91;;;20.14;51.40
6464;BME280;3265;42.694;23.282;2023-03-23T11:26:37;94720.66;;;20.19;50.03
6464;BME280;3265;42.694;23.282;2023-03-23T11:29:12;94715.84;;;20.31;51.06
6464;BME280;3265;42.694;23.282;2023-03-23T11:31:44;94701.09;;;20.83;49.79
6464;BME280;3265;42.694;23.282;2023-03-23T11:34:14;94681.78;;;20.59;49.80
6464;BME280;3265;42.694;23.282;2023-03-23T11:36:46;94676.75;;;20.33;48.99
6464;BME280;3265;42.694;23.282;2023-03-23T11:39:20;94702.84;;;20.35;49.01
6464;BME280;3265;42.694;23.282;2023-03-23T11:41:47;94693.69;;;19.89;50.08
6464;BME280;3265;42.694;23.282;2023-03-23T11:44:15;94706.34;;;20.30;49.79
6464;BME280;3265;42.694;23.282;2023-03-23T11:46:49;94701.50;;;20.95;48.40
6464;BME280;3265;42.694;23.282;2023-03-23T11:49:31;94689.88;;;21.20;48.38
6464;BME280;3265;42.694;23.282;2023-03-23T11:52:08;94698.44;;;21.91;47.28
6464;BME280;3265;42.694;23.282;2023-03-23T11:54:41;94696.66;;;22.05;44.10
6464;BME280;3265;42.694;23.282;2023-03-23T11:57:11;94698.75;;;22.41;44.81
6464;BME280;3265;42.694;23.282;2023-03-23T11:59:40;94701.09;;;22.42;41.07
6464;BME280;3265;42.694;23.282;2023-03-23T12:02:26;94677.13;;;22.34;41.75
6464;BME280;3265;42.694;23.282;2023-03-23T12:05:00;94688.06;;;22.78;41.12
6464;BME280;3265;42.694;23.282;2023-03-23T12:07:45;94686.28;;;23.14;41.86
6464;BME280;3265;42.694;23.282;2023-03-23T12:10:24;94695.13;;;23.24;40.26
6464;BME280;3265;42.694;23.282;2023-03-23T12:12:59;94692.69;;;23.27;39.51
6464;BME280;3265;42.694;23.282;2023-03-23T12:15:34;94674.41;;;22.98;40.31
6464;BME280;3265;42.694;23.282;2023-03-23T12:18:12;94689.53;;;23.25;39.78
6464;BME280;3265;42.694;23.282;2023-03-23T12:20:51;94691.72;;;23.23;39.31
6464;BME280;3265;42.694;23.282;2023-03-23T12:23:23;94684.59;;;23.32;39.88
6464;BME280;3265;42.694;23.282;2023-03-23T12:26:19;94686.56;;;23.27;38.75
6464;BME280;3265;42.694;23.282;2023-03-23T12:29:26;94682.63;;;23.65;38.44
6464;BME280;3265;42.694;23.282;2023-03-23T12:32:29;94693.41;;;24.18;37.68
6464;BME280;3265;42.694;23.282;2023-03-23T12:35:07;94685.72;;;24.39;36.82
6464;BME280;3265;42.694;23.282;2023-03-23T12:37:45;94685.16;;;24.50;35.15
6464;BME280;3265;42.694;23.282;2023-03-23T12:40:32;94682.50;;;24.72;35.63
6464;BME280;3265;42.694;23.282;2023-03-23T12:43:05;94674.84;;;25.10;34.51
6464;BME280;3265;42.694;23.282;2023-03-23T12:45:56;94661.31;;;25.46;33.62
6464;BME280;3265;42.694;23.282;2023-03-23T12:48:29;94674.06;;;25.75;33.31
6464;BME280;3265;42.694;23.282;2023-03-23T12:51:10;94679.06;;;26.54;32.81
6464;BME280;3265;42.694;23.282;2023-03-23T12:53:46;94664.16;;;27.08;30.41
6464;BME280;3265;42.694;23.282;2023-03-23T12:56:19;94675.06;;;27.61;29.90
6464;BME280;3265;42.694;23.282;2023-03-23T12:58:51;94677.47;;;27.75;30.11
6464;BME280;3265;42.694;23.282;2023-03-23T13:01:24;94668.63;;;27.33;29.88
6464;BME280;3265;42.694;23.282;2023-03-23T13:03:56;94678.44;;;27.41;29.19
6464;BME280;3265;42.694;23.282;2023-03-23T13:06:29;94676.38;;;27.76;29.20
6464;BME280;3265;42.694;23.282;2023-03-23T13:09:05;94680.69;;;27.89;29.05
6464;BME280;3265;42.694;23.282;2023-03-23T13:11:37;94677.09;;;28.26;28.19
6464;BME280;3265;42.694;23.282;2023-03-23T13:17:06;94669.16;;;28.50;27.46
6464;BME280;3265;42.694;23.282;2023-03-23T13:19:48;94664.66;;;28.30;27.70
6464;BME280;3265;42.694;23.282;2023-03-23T13:22:23;94670.78;;;28.43;27.35
6464;BME280;3265;42.694;23.282;2023-03-23T13:25:07;94659.28;;;27.89;28.82
6464;BME280;3265;42.694;23.282;2023-03-23T13:27:38;94653.75;;;27.52;29.24
6464;BME280;3265;42.694;23.282;2023-03-23T13:30:18;94650.34;;;27.43;29.35
6464;BME280;3265;42.694;23.282;2023-03-23T13:32:48;94638.31;;;27.58;28.43
6464;BME280;3265;42.694;23.282;2023-03-23T13:35:18;94652.63;;;27.24;29.00
6464;BME280;3265;42.694;23.282;2023-03-23T13:37:50;94626.13;;;27.48;28.97
6464;BME280;3265;42.694;23.282;2023-03-23T13:40:24;94659.97;;;28.06;28.18
6464;BME280;3265;42.694;23.282;2023-03-23T13:42:54;94658.19;;;28.64;26.57
6464;BME280;3265;42.694;23.282;2023-03-23T13:45:23;94656.69;;;29.11;25.57
6464;BME280;3265;42.694;23.282;2023-03-23T13:48:19;94655.84;;;29.44;24.79
6464;BME280;3265;42.694;23.282;2023-03-23T13:50:53;94650.56;;;29.11;26.00